Time;durP1;ratioP1;P1;durP2;ratioP2;P2;SDS_P1;SDS_P2;PMS_P1;PMS_P2;Temp;Humidity;BMP_temperature;BMP_pressure;BME280_temperature;BME280_humidity;BME280_pressure;Samples;Min_cycle;Max_cycle;Signal;HPM_P1;HPM_P2
2021/12/28 00:01:28;;;;;;;47.70;18.67;;;;;;;6.17;100.00;97533.13;5028140;28;20284;-85
2021/12/28 00:04:04;;;;;;;35.53;19.23;;;;;;;6.05;100.00;97526.13;5032233;28;20217;-85
2021/12/28 00:06:33;;;;;;;32.20;17.97;;;;;;;6.11;100.00;97529.16;4967622;28;20199;-85
2021/12/28 00:09:08;;;;;;;28.30;17.70;;;;;;;6.06;100.00;97527.78;4970849;28;20191;-86
2021/12/28 00:11:37;;;;;;;29.33;17.53;;;;;;;6.19;100.00;97516.31;4971240;28;20238;-86
2021/12/28 00:14:07;;;;;;;31.30;18.10;;;;;;;6.30;100.00;97521.63;4970948;28;20211;-86
2021/12/28 00:17:58;;;;;;;30.03;17.97;;;;;;;6.31;100.00;97519.81;4969743;28;20697;-86
2021/12/28 00:19:32;;;;;;;29.33;17.67;;;;;;;6.30;100.00;97523.41;4972979;28;20203;-86
2021/12/28 00:22:14;;;;;;;31.40;18.57;;;;;;;6.26;100.00;97514.03;4973089;28;20700;-87
2021/12/28 00:24:53;;;;;;;29.57;18.50;;;;;;;6.21;100.00;97524.06;4967171;28;20262;-85
2021/12/28 00:27:22;;;;;;;37.00;19.83;;;;;;;6.20;100.00;97515.34;4975573;28;20187;-86
2021/12/28 00:29:51;;;;;;;31.70;18.67;;;;;;;6.12;100.00;97520.31;4993583;28;20195;-86
2021/12/28 00:32:23;;;;;;;58.60;20.13;;;;;;;6.28;100.00;97515.63;4990857;28;20199;-87
2021/12/28 00:34:51;;;;;;;47.97;22.00;;;;;;;6.30;100.00;97513.72;4985377;28;20214;-85
2021/12/28 00:37:19;;;;;;;42.60;22.33;;;;;;;6.26;100.00;97514.88;4991373;28;20647;-86
2021/12/28 00:39:48;;;;;;;59.33;21.57;;;;;;;6.44;100.00;97507.44;4992662;28;20645;-86
2021/12/28 00:42:17;;;;;;;58.37;20.73;;;;;;;6.45;100.00;97513.53;4988397;28;20202;-85
2021/12/28 00:44:46;;;;;;;74.07;21.07;;;;;;;6.50;100.00;97512.25;4990735;28;20195;-86
2021/12/28 00:47:17;;;;;;;53.00;19.83;;;;;;;6.53;100.00;97508.56;4990539;28;20294;-86
2021/12/28 00:49:48;;;;;;;93.20;23.57;;;;;;;6.46;100.00;97507.31;4987263;28;20310;-86
2021/12/28 00:52:16;;;;;;;157.43;28.63;;;;;;;6.32;100.00;97518.88;4989952;28;20254;-86
2021/12/28 00:54:46;;;;;;;67.03;23.57;;;;;;;6.41;100.00;97515.56;4990791;28;20206;-86
2021/12/28 00:57:23;;;;;;;126.43;26.80;;;;;;;6.50;100.00;97506.16;4992687;28;20199;-85
2021/12/28 00:59:51;;;;;;;72.20;22.30;;;;;;;6.53;100.00;97500.66;4991386;28;20197;-85
2021/12/28 01:02:20;;;;;;;86.17;24.87;;;;;;;6.60;100.00;97507.16;5016475;28;20179;-83
2021/12/28 01:04:52;;;;;;;149.47;47.00;;;;;;;6.62;100.00;97510.50;5005963;28;20266;-86
2021/12/28 01:07:26;;;;;;;231.43;41.70;;;;;;;6.50;100.00;97498.28;4998175;28;20194;-86
2021/12/28 01:09:57;;;;;;;173.90;34.30;;;;;;;6.62;100.00;97499.97;4990943;28;20289;-86
2021/12/28 01:12:26;;;;;;;293.77;37.13;;;;;;;6.54;100.00;97497.91;4990496;28;20202;-86
2021/12/28 01:14:54;;;;;;;163.60;30.07;;;;;;;6.55;100.00;97483.81;5000960;28;20191;-85
2021/12/28 01:17:30;;;;;;;295.20;37.33;;;;;;;6.60;100.00;97488.75;5011898;28;20261;-86
2021/12/28 01:20:00;;;;;;;141.90;28.50;;;;;;;6.69;100.00;97484.59;5010696;28;20216;-85
2021/12/28 01:22:28;;;;;;;199.67;34.67;;;;;;;6.65;100.00;97481.31;5014945;28;20277;-86
2021/12/28 01:24:56;;;;;;;138.43;30.73;;;;;;;6.69;100.00;97484.59;5008222;28;20666;-86
2021/12/28 01:27:25;;;;;;;121.23;27.83;;;;;;;6.75;100.00;97484.94;5006546;28;20241;-86
2021/12/28 01:29:53;;;;;;;89.33;27.00;;;;;;;6.85;100.00;97480.69;5012713;28;20195;-85
2021/12/28 01:32:22;;;;;;;215.30;36.47;;;;;;;6.80;100.00;97485.44;5012951;28;20190;-85
2021/12/28 01:34:50;;;;;;;170.63;31.70;;;;;;;6.83;100.00;97487.00;5017921;28;20285;-85
2021/12/28 01:37:20;;;;;;;226.27;35.80;;;;;;;6.85;100.00;97478.06;5028043;28;20372;-85
2021/12/28 01:39:49;;;;;;;116.33;28.90;;;;;;;6.88;100.00;97480.44;5028375;28;20205;-86
2021/12/28 01:42:17;;;;;;;155.60;29.23;;;;;;;6.95;100.00;97479.97;5017323;28;20202;-86
2021/12/28 01:44:45;;;;;;;102.73;28.30;;;;;;;6.98;100.00;97480.59;5012752;28;20221;-85
2021/12/28 01:47:16;;;;;;;109.23;29.87;;;;;;;7.04;100.00;97489.78;5012870;28;20199;-86
2021/12/28 01:49:44;;;;;;;119.87;31.27;;;;;;;7.06;100.00;97478.22;5002691;28;20210;-85
2021/12/28 01:52:13;;;;;;;131.30;30.40;;;;;;;6.99;100.00;97468.25;5008470;28;20193;-85
2021/12/28 01:54:45;;;;;;;197.73;35.37;;;;;;;6.97;100.00;97457.84;5012259;28;20182;-85
2021/12/28 01:57:13;;;;;;;176.53;33.93;;;;;;;7.06;100.00;97459.78;5014297;28;20194;-85
2021/12/28 01:59:41;;;;;;;175.47;33.30;;;;;;;7.00;100.00;97467.31;5013932;28;20202;-85
2021/12/28 02:02:09;;;;;;;191.60;34.60;;;;;;;7.07;100.00;97450.94;5013223;28;20190;-85
2021/12/28 02:04:38;;;;;;;200.60;37.33;;;;;;;6.99;100.00;97455.09;5013502;28;20684;-85
2021/12/28 02:07:06;;;;;;;217.37;34.30;;;;;;;7.02;100.00;97439.06;5012077;28;20231;-86
2021/12/28 02:09:34;;;;;;;88.37;28.70;;;;;;;7.10;100.00;97445.41;5012262;28;20171;-85
2021/12/28 02:12:05;;;;;;;170.83;33.83;;;;;;;7.07;100.00;97453.56;5012501;28;20191;-85
2021/12/28 02:14:33;;;;;;;182.27;33.33;;;;;;;7.05;100.00;97444.94;5016668;28;20206;-86
2021/12/28 02:17:01;;;;;;;234.27;39.47;;;;;;;7.03;100.00;97446.00;5012859;28;20218;-85
2021/12/28 02:19:30;;;;;;;134.97;30.00;;;;;;;7.06;100.00;97451.06;5013710;28;20209;-85
2021/12/28 02:22:00;;;;;;;140.60;34.33;;;;;;;7.13;100.00;97444.31;5016542;28;20190;-85
2021/12/28 02:24:28;;;;;;;86.33;29.27;;;;;;;7.12;100.00;97432.13;5012477;28;20218;-85
2021/12/28 02:26:56;;;;;;;62.73;27.93;;;;;;;7.09;100.00;97424.47;5016568;28;20190;-86
2021/12/28 02:29:25;;;;;;;146.27;30.57;;;;;;;7.05;100.00;97428.31;5009611;28;20198;-85
2021/12/28 02:31:55;;;;;;;202.20;36.90;;;;;;;7.06;100.00;97422.94;5007492;28;20182;-85
2021/12/28 02:34:24;;;;;;;178.17;34.37;;;;;;;7.06;100.00;97432.63;5013967;28;20251;-86
2021/12/28 02:36:54;;;;;;;118.63;32.57;;;;;;;7.10;100.00;97431.41;5013025;28;20195;-85
2021/12/28 02:39:24;;;;;;;225.00;38.07;;;;;;;7.08;100.00;97423.66;5016065;28;20256;-86
2021/12/28 02:41:53;;;;;;;118.60;31.37;;;;;;;7.10;100.00;97426.16;5013313;28;20649;-85
2021/12/28 02:44:22;;;;;;;120.57;33.53;;;;;;;7.10;100.00;97434.03;4978913;28;20198;-86
2021/12/28 02:46:50;;;;;;;162.13;34.03;;;;;;;7.03;100.00;97431.03;5012380;28;20202;-86
2021/12/28 02:49:18;;;;;;;67.70;29.83;;;;;;;7.14;100.00;97432.84;5011123;28;20237;-85
2021/12/28 02:51:47;;;;;;;90.50;30.47;;;;;;;7.13;100.00;97426.75;5013275;28;20179;-86
2021/12/28 02:54:15;;;;;;;66.30;29.30;;;;;;;7.16;100.00;97420.41;5011330;28;20183;-86
2021/12/28 02:56:45;;;;;;;59.67;29.27;;;;;;;7.21;100.00;97423.50;5012229;28;20187;-86
2021/12/28 02:59:14;;;;;;;60.43;28.67;;;;;;;7.22;100.00;97419.09;5013198;28;20186;-85
2021/12/28 03:01:43;;;;;;;58.73;29.97;;;;;;;7.18;100.00;97411.44;5014974;28;20253;-86
2021/12/28 03:04:12;;;;;;;62.93;31.07;;;;;;;7.27;100.00;97406.41;5011595;28;20248;-85
2021/12/28 03:06:40;;;;;;;53.73;29.07;;;;;;;7.30;100.00;97407.00;5010405;28;20226;-86
2021/12/28 03:09:09;;;;;;;57.10;30.13;;;;;;;7.23;100.00;97407.59;5015721;28;20695;-86
2021/12/28 03:11:37;;;;;;;52.00;28.03;;;;;;;7.25;100.00;97408.34;5015434;28;20202;-85
2021/12/28 03:14:07;;;;;;;51.53;28.50;;;;;;;7.25;100.00;97397.81;5012728;28;20187;-85
2021/12/28 03:16:35;;;;;;;53.23;26.37;;;;;;;7.22;100.00;97382.22;5011521;28;20194;-85
2021/12/28 03:19:05;;;;;;;55.50;25.70;;;;;;;7.26;100.00;97383.69;5015607;28;20190;-85
2021/12/28 03:21:35;;;;;;;71.40;28.37;;;;;;;7.21;100.00;97378.75;5015252;28;20195;-85
2021/12/28 03:24:04;;;;;;;47.57;25.20;;;;;;;7.17;100.00;97378.19;5014540;28;20221;-85
2021/12/28 03:26:33;;;;;;;47.37;24.37;;;;;;;7.17;100.00;97366.81;4914761;29;20222;-85
2021/12/28 03:29:02;;;;;;;45.47;22.50;;;;;;;7.28;100.00;97364.16;4914586;29;20206;-86
2021/12/28 03:31:31;;;;;;;39.63;22.00;;;;;;;7.29;100.00;97365.81;4917128;29;20194;-85
2021/12/28 03:34:00;;;;;;;43.17;20.40;;;;;;;7.27;100.00;97385.34;4919759;29;20201;-84
2021/12/28 03:36:30;;;;;;;44.37;20.80;;;;;;;7.31;100.00;97379.69;4917122;29;20202;-85
2021/12/28 03:38:59;;;;;;;38.33;20.00;;;;;;;7.26;100.00;97376.63;4916976;29;20205;-85
2021/12/28 03:41:30;;;;;;;44.67;19.77;;;;;;;7.33;100.00;97367.25;4916670;29;20186;-85
2021/12/28 03:43:59;;;;;;;33.83;17.73;;;;;;;7.26;100.00;97378.41;4914766;29;20262;-85
2021/12/28 03:46:29;;;;;;;34.53;17.60;;;;;;;7.29;100.00;97373.72;4910716;29;20253;-85
2021/12/28 03:48:59;;;;;;;30.53;16.33;;;;;;;7.39;100.00;97374.66;4914491;29;20710;-85
2021/12/28 03:51:27;;;;;;;36.47;17.00;;;;;;;7.46;100.00;97380.28;4974495;28;20591;-85
2021/12/28 03:53:56;;;;;;;31.43;15.83;;;;;;;7.40;100.00;97378.13;5012603;28;20194;-85
2021/12/28 03:56:25;;;;;;;29.87;14.17;;;;;;;7.51;100.00;97391.28;5011307;28;20202;-86
2021/12/28 03:58:54;;;;;;;32.10;15.40;;;;;;;7.54;100.00;97385.78;5015872;28;20202;-86
2021/12/28 04:01:25;;;;;;;32.27;15.80;;;;;;;7.54;100.00;97377.06;5011429;28;20210;-85
2021/12/28 04:03:54;;;;;;;32.00;15.47;;;;;;;7.50;100.00;97365.91;5008922;28;20194;-85
2021/12/28 04:06:23;;;;;;;34.30;15.13;;;;;;;7.54;100.00;97364.72;5015033;28;20218;-85
2021/12/28 04:08:52;;;;;;;32.43;14.83;;;;;;;7.55;100.00;97365.56;5012094;28;20203;-85
2021/12/28 04:14:09;;;;;;;25.90;13.20;;;;;;;7.57;100.00;97364.47;5023821;28;20289;-86
2021/12/28 04:16:37;;;;;;;30.00;13.23;;;;;;;7.59;100.00;97349.34;5007742;28;20205;-84
2021/12/28 04:19:06;;;;;;;31.40;13.33;;;;;;;7.58;100.00;97341.59;5009555;28;20202;-86
2021/12/28 04:21:36;;;;;;;28.53;12.70;;;;;;;7.55;100.00;97339.22;5011219;28;20233;-86
2021/12/28 04:24:05;;;;;;;26.53;11.80;;;;;;;7.56;100.00;97346.16;5014337;28;20195;-85
2021/12/28 04:26:34;;;;;;;31.70;12.03;;;;;;;7.57;100.00;97343.38;5005168;28;20248;-85
2021/12/28 04:29:02;;;;;;;24.63;10.63;;;;;;;7.54;100.00;97340.19;5011708;28;20197;-85
2021/12/28 04:31:30;;;;;;;29.90;10.60;;;;;;;7.60;100.00;97334.38;5004429;28;20202;-86
2021/12/28 04:33:59;;;;;;;25.90;10.43;;;;;;;7.63;100.00;97347.34;5014095;28;20245;-85
2021/12/28 04:36:29;;;;;;;26.97;9.70;;;;;;;7.65;100.00;97340.13;5009114;28;20194;-85
2021/12/28 04:39:00;;;;;;;25.93;9.60;;;;;;;7.71;100.00;97339.63;5011162;28;20194;-85
2021/12/28 04:41:28;;;;;;;24.80;9.47;;;;;;;7.69;100.00;97342.38;5014404;28;20175;-85
2021/12/28 04:43:59;;;;;;;20.27;8.87;;;;;;;7.74;100.00;97340.22;5007400;28;20198;-85
2021/12/28 04:46:27;;;;;;;25.90;9.30;;;;;;;7.75;100.00;97328.72;5009802;28;20264;-85
2021/12/28 04:48:56;;;;;;;24.83;8.30;;;;;;;7.77;100.00;97333.84;5004587;28;20190;-85
2021/12/28 04:51:24;;;;;;;23.93;9.00;;;;;;;7.76;100.00;97332.19;5011014;28;20240;-85
2021/12/28 04:53:54;;;;;;;23.57;8.07;;;;;;;7.75;100.00;97331.34;5014209;28;20206;-85
2021/12/28 04:56:24;;;;;;;20.30;8.30;;;;;;;7.77;100.00;97335.66;5010818;28;20175;-85
2021/12/28 04:58:53;;;;;;;19.63;7.50;;;;;;;7.77;100.00;97333.84;5011243;28;20249;-85
2021/12/28 05:01:21;;;;;;;19.33;8.03;;;;;;;7.72;100.00;97336.88;5013244;28;20190;-86
2021/12/28 05:03:50;;;;;;;18.10;7.87;;;;;;;7.70;100.00;97333.50;5005148;28;20257;-85
2021/12/28 05:06:18;;;;;;;20.80;7.80;;;;;;;7.72;100.00;97330.75;5010066;28;20214;-85
2021/12/28 05:08:46;;;;;;;17.77;7.20;;;;;;;7.77;100.00;97325.13;5016801;28;20218;-85
2021/12/28 05:11:15;;;;;;;21.13;7.47;;;;;;;7.61;100.00;97325.53;5012151;28;20187;-85
2021/12/28 05:13:46;;;;;;;17.23;7.10;;;;;;;7.70;100.00;97312.44;5010538;28;20202;-84
2021/12/28 05:16:16;;;;;;;18.73;6.73;;;;;;;7.79;100.00;97318.75;5008812;28;20198;-85
2021/12/28 05:18:44;;;;;;;20.40;7.23;;;;;;;7.75;100.00;97306.81;5009985;28;20219;-85
2021/12/28 05:21:13;;;;;;;19.57;6.50;;;;;;;7.70;100.00;97308.97;5013810;28;20203;-85
2021/12/28 05:23:41;;;;;;;20.47;7.63;;;;;;;7.68;100.00;97308.25;5006522;28;20198;-85
2021/12/28 05:26:09;;;;;;;21.87;7.40;;;;;;;7.74;100.00;97307.78;5006466;28;20209;-85
2021/12/28 05:28:38;;;;;;;18.90;6.93;;;;;;;7.75;100.00;97309.44;5014085;28;20187;-85
2021/12/28 05:31:08;;;;;;;20.30;7.20;;;;;;;7.72;100.00;97302.63;5009989;28;20297;-85
2021/12/28 05:33:36;;;;;;;17.87;7.10;;;;;;;7.70;100.00;97296.63;5005132;28;20198;-84
2021/12/28 05:36:05;;;;;;;18.73;7.20;;;;;;;7.81;100.00;97300.16;5013867;28;20183;-84
2021/12/28 05:38:34;;;;;;;19.97;6.63;;;;;;;7.76;100.00;97295.28;4953387;29;20199;-85
2021/12/28 05:41:03;;;;;;;19.27;7.27;;;;;;;7.75;100.00;97293.63;4955766;28;20196;-84
2021/12/28 05:43:31;;;;;;;23.03;7.63;;;;;;;7.72;100.00;97289.44;4948657;29;20200;-85
2021/12/28 05:46:00;;;;;;;16.97;6.97;;;;;;;7.70;100.00;97282.63;4955256;28;20197;-85
2021/12/28 05:48:29;;;;;;;18.23;7.00;;;;;;;7.68;100.00;97293.28;4955140;29;20213;-85
2021/12/28 05:50:58;;;;;;;19.80;7.60;;;;;;;7.75;100.00;97288.34;4952476;29;20200;-85
2021/12/28 05:53:26;;;;;;;14.47;6.87;;;;;;;7.78;100.00;97292.53;4952737;29;20251;-85
2021/12/28 05:55:54;;;;;;;17.13;7.47;;;;;;;7.69;100.00;97276.50;4963006;28;20206;-85
2021/12/28 05:58:22;;;;;;;19.43;7.67;;;;;;;7.64;100.00;97291.03;5017064;28;20233;-85
2021/12/28 06:00:52;;;;;;;17.20;6.83;;;;;;;7.66;100.00;97282.03;5017289;28;20199;-85
2021/12/28 06:03:20;;;;;;;16.13;7.20;;;;;;;7.64;100.00;97283.97;5008469;28;20210;-85
2021/12/28 06:05:50;;;;;;;17.00;6.23;;;;;;;7.67;100.00;97273.16;5011903;28;20186;-85
2021/12/28 06:08:18;;;;;;;11.93;5.87;;;;;;;7.58;100.00;97273.09;5011545;28;20214;-84
2021/12/28 06:11:00;;;;;;;13.90;5.53;;;;;;;7.62;100.00;97271.88;5015907;28;20676;-85
2021/12/28 06:13:28;;;;;;;12.40;6.10;;;;;;;7.62;100.00;97269.22;5013605;28;20202;-85
2021/12/28 06:15:56;;;;;;;15.57;5.80;;;;;;;7.70;100.00;97275.53;5015304;28;20202;-85
2021/12/28 06:18:25;;;;;;;14.10;5.40;;;;;;;7.68;100.00;97271.38;5014316;28;20713;-85
2021/12/28 06:20:54;;;;;;;14.87;5.77;;;;;;;7.59;100.00;97270.34;5009414;28;20311;-85
2021/12/28 06:23:22;;;;;;;16.20;5.67;;;;;;;7.68;100.00;97268.75;5012233;28;20194;-85
2021/12/28 06:25:50;;;;;;;15.43;6.07;;;;;;;7.74;100.00;97255.06;5016372;28;20560;-85
2021/12/28 06:28:19;;;;;;;16.33;6.10;;;;;;;7.78;100.00;97258.28;5012694;28;20214;-85
2021/12/28 06:30:47;;;;;;;13.63;5.77;;;;;;;7.80;100.00;97258.97;5008997;28;20217;-85
2021/12/28 06:33:16;;;;;;;14.33;5.97;;;;;;;7.75;100.00;97252.31;5016870;28;20189;-85
2021/12/28 06:35:46;;;;;;;12.73;5.53;;;;;;;7.74;100.00;97249.78;5020770;28;20186;-86
2021/12/28 06:38:18;;;;;;;12.40;5.30;;;;;;;7.85;100.00;97251.53;5018565;28;20174;-85
2021/12/28 06:40:48;;;;;;;13.23;5.23;;;;;;;7.77;100.00;97246.91;5018108;28;20198;-85
2021/12/28 06:43:16;;;;;;;10.57;4.73;;;;;;;7.74;100.00;97249.78;5012944;28;20186;-86
2021/12/28 06:45:45;;;;;;;13.93;5.27;;;;;;;7.73;100.00;97248.13;5014991;28;20202;-86
2021/12/28 06:48:13;;;;;;;13.60;5.50;;;;;;;7.73;100.00;97243.69;5011163;28;20252;-86
2021/12/28 06:50:42;;;;;;;10.33;5.53;;;;;;;7.82;100.00;97243.91;5011209;28;20189;-85
2021/12/28 06:53:10;;;;;;;13.30;4.50;;;;;;;7.71;100.00;97247.41;5011731;28;20190;-85
2021/12/28 06:55:40;;;;;;;12.07;4.90;;;;;;;7.70;100.00;97232.56;5010992;28;20199;-85
2021/12/28 06:58:09;;;;;;;14.63;5.07;;;;;;;7.81;100.00;97232.50;5010810;28;20241;-85
2021/12/28 07:00:39;;;;;;;14.63;5.17;;;;;;;7.79;100.00;97226.53;5015517;28;20206;-85
2021/12/28 07:03:07;;;;;;;12.70;5.40;;;;;;;7.75;100.00;97223.31;5010296;28;20268;-86
2021/12/28 07:05:36;;;;;;;12.50;4.80;;;;;;;7.75;100.00;97223.31;5011498;28;20206;-84
2021/12/28 07:08:05;;;;;;;20.50;5.00;;;;;;;7.70;100.00;97216.75;5012941;28;20202;-84
2021/12/28 07:10:34;;;;;;;14.60;4.97;;;;;;;7.78;100.00;97226.66;5019787;28;20266;-85
2021/12/28 07:13:04;;;;;;;13.87;5.47;;;;;;;7.81;100.00;97221.13;5019586;28;20213;-82
2021/12/28 07:15:34;;;;;;;11.33;5.70;;;;;;;7.78;100.00;97224.84;5026874;28;20194;-84
2021/12/28 07:18:04;;;;;;;20.03;6.57;;;;;;;7.74;100.00;97221.66;4994299;28;20229;-85
2021/12/28 07:20:32;;;;;;;18.53;7.80;;;;;;;7.67;100.00;97222.28;5015457;28;20179;-85
2021/12/28 07:23:01;;;;;;;18.47;7.97;;;;;;;7.72;100.00;97228.00;5010043;28;20205;-85
2021/12/28 07:25:30;;;;;;;12.63;5.40;;;;;;;7.65;100.00;97217.16;4976649;28;20205;-85
2021/12/28 07:28:04;;;;;;;12.30;5.60;;;;;;;7.64;100.00;97218.13;5011884;28;20226;-85
2021/12/28 07:30:33;;;;;;;10.30;5.90;;;;;;;7.65;100.00;97219.78;4975935;28;20843;-85
2021/12/28 07:33:01;;;;;;;16.77;5.50;;;;;;;7.64;100.00;97212.00;5008031;28;20191;-85
2021/12/28 07:35:29;;;;;;;12.10;5.63;;;;;;;7.72;100.00;97220.09;5006902;28;20202;-85
2021/12/28 07:37:57;;;;;;;13.33;5.93;;;;;;;7.68;100.00;97208.97;5010433;28;20229;-85
2021/12/28 07:40:26;;;;;;;15.23;6.23;;;;;;;7.65;100.00;97203.97;5011471;28;20198;-85
2021/12/28 07:42:55;;;;;;;10.13;5.40;;;;;;;7.60;100.00;97203.50;5003717;28;20202;-85
2021/12/28 07:45:24;;;;;;;13.50;5.60;;;;;;;7.71;100.00;97205.25;5008789;28;20285;-85
2021/12/28 07:47:53;;;;;;;12.57;4.80;;;;;;;7.51;100.00;97208.72;5011064;28;20202;-85
2021/12/28 07:50:21;;;;;;;11.50;4.23;;;;;;;7.60;100.00;97211.41;4933264;29;20209;-85
2021/12/28 07:52:52;;;;;;;13.03;5.47;;;;;;;7.65;100.00;97206.59;4935539;29;20671;-85
2021/12/28 07:55:20;;;;;;;12.13;4.97;;;;;;;7.68;100.00;97208.97;4916635;29;20200;-86
2021/12/28 07:57:50;;;;;;;13.97;4.73;;;;;;;7.67;100.00;97217.84;4932993;29;20209;-85
2021/12/28 08:00:22;;;;;;;11.97;4.60;;;;;;;7.77;100.00;97204.75;4932756;29;20181;-85
2021/12/28 08:02:53;;;;;;;13.00;4.80;;;;;;;7.73;100.00;97219.97;4931598;29;20193;-86
2021/12/28 08:05:21;;;;;;;11.17;4.43;;;;;;;7.75;100.00;97217.22;4930384;29;20204;-85
2021/12/28 08:07:50;;;;;;;13.23;4.17;;;;;;;7.83;100.00;97230.59;4946345;28;20221;-85
2021/12/28 08:10:21;;;;;;;10.23;4.30;;;;;;;7.82;100.00;97220.19;5009024;28;20201;-85
2021/12/28 08:12:50;;;;;;;14.43;4.63;;;;;;;7.90;100.00;97212.44;5010928;28;20205;-85
2021/12/28 08:15:18;;;;;;;19.57;5.07;;;;;;;7.79;100.00;97213.34;5014588;28;20179;-85
2021/12/28 08:17:46;;;;;;;13.47;4.57;;;;;;;7.75;100.00;97204.03;5010332;28;20288;-85
2021/12/28 08:20:18;;;;;;;11.63;4.23;;;;;;;7.81;100.00;97206.13;5014903;28;20201;-85
2021/12/28 08:22:47;;;;;;;9.23;3.80;;;;;;;7.78;100.00;97205.56;5007684;28;20614;-85
2021/12/28 08:25:18;;;;;;;11.10;4.37;;;;;;;7.83;100.00;97206.88;5006789;28;20194;-85
2021/12/28 08:27:48;;;;;;;10.37;4.57;;;;;;;7.83;100.00;97198.13;5009240;28;20247;-85
2021/12/28 08:30:18;;;;;;;9.87;4.70;;;;;;;7.80;100.00;97196.56;4959721;28;20203;-85
2021/12/28 08:32:47;;;;;;;13.77;4.47;;;;;;;7.77;100.00;97196.84;4952888;29;20204;-85
2021/12/28 08:35:17;;;;;;;9.07;4.40;;;;;;;7.85;100.00;97194.41;4957854;29;20200;-85
2021/12/28 08:37:47;;;;;;;10.27;4.60;;;;;;;7.78;100.00;97182.69;4958270;29;20208;-85
2021/12/28 08:40:17;;;;;;;13.77;5.10;;;;;;;7.84;100.00;97186.63;4958085;29;20196;-86
2021/12/28 08:42:46;;;;;;;12.63;4.13;;;;;;;7.79;100.00;97184.34;4951561;29;20211;-85
2021/12/28 08:45:14;;;;;;;11.03;4.17;;;;;;;7.79;100.00;97172.97;4951605;29;20208;-85
2021/12/28 08:47:43;;;;;;;11.73;4.30;;;;;;;7.78;100.00;97168.69;4949425;29;20200;-85
2021/12/28 08:50:11;;;;;;;12.20;4.20;;;;;;;7.87;100.00;97171.38;4920951;29;20208;-85
2021/12/28 08:52:42;;;;;;;11.00;4.83;;;;;;;7.89;100.00;97169.44;4958045;29;20316;-85
2021/12/28 08:55:18;;;;;;;14.97;4.80;;;;;;;7.80;100.00;97167.56;4955585;29;20656;-85
2021/12/28 08:57:46;;;;;;;8.33;3.73;;;;;;;7.92;100.00;97181.53;4955559;28;20196;-85
2021/12/28 09:00:18;;;;;;;12.13;3.37;;;;;;;7.91;100.00;97177.22;4951509;29;20197;-85
2021/12/28 09:02:48;;;;;;;10.33;3.90;;;;;;;7.97;100.00;97171.41;4951802;29;20212;-85
2021/12/28 09:05:17;;;;;;;11.27;3.23;;;;;;;7.90;100.00;97160.56;4955787;29;20208;-84
2021/12/28 09:07:46;;;;;;;10.77;3.47;;;;;;;7.88;100.00;97162.50;4951348;29;20189;-85
2021/12/28 09:10:17;;;;;;;11.60;3.33;;;;;;;7.99;100.00;97164.22;4955633;28;20208;-85
2021/12/28 09:12:45;;;;;;;12.60;5.23;;;;;;;7.90;100.00;97165.81;4951669;29;20204;-85
2021/12/28 09:15:20;;;;;;;8.83;4.43;;;;;;;8.00;100.00;97171.16;4988562;28;20210;-85
2021/12/28 09:17:49;;;;;;;10.97;4.93;;;;;;;7.96;100.00;97167.94;5004372;28;20233;-85
2021/12/28 09:20:21;;;;;;;14.83;4.40;;;;;;;8.06;100.00;97178.53;5007780;28;20281;-85
2021/12/28 09:23:08;;;;;;;7.40;3.60;;;;;;;8.07;100.00;97171.47;5017274;28;20214;-84
2021/12/28 09:25:37;;;;;;;10.50;3.37;;;;;;;8.00;100.00;97179.06;5013676;28;20203;-86
2021/12/28 09:28:08;;;;;;;8.67;3.07;;;;;;;8.06;100.00;97182.97;5019627;28;20278;-85
2021/12/28 09:30:38;;;;;;;10.63;3.87;;;;;;;8.10;100.00;97184.38;5018397;28;20303;-85
2021/12/28 09:33:06;;;;;;;12.57;3.23;;;;;;;8.05;100.00;97179.50;5019005;28;20187;-85
2021/12/28 09:35:35;;;;;;;9.00;2.90;;;;;;;8.09;100.00;97170.38;5023189;28;20673;-86
2021/12/28 09:38:26;;;;;;;5.63;2.70;;;;;;;8.17;100.00;97178.47;5022480;28;20194;-84
2021/12/28 09:41:20;;;;;;;9.17;3.50;;;;;;;8.05;100.00;97163.69;5017162;28;20198;-84
2021/12/28 09:44:10;;;;;;;7.00;3.40;;;;;;;8.02;100.00;97162.16;4973330;28;20195;-85
2021/12/28 09:46:45;;;;;;;5.20;2.80;;;;;;;8.04;100.00;97154.13;4975627;28;20204;-85
2021/12/28 09:49:16;;;;;;;6.97;3.23;;;;;;;7.99;100.00;97158.94;4972077;28;20810;-85
2021/12/28 09:51:44;;;;;;;5.10;2.63;;;;;;;7.82;100.00;97159.56;4975718;28;20310;-84
2021/12/28 09:54:15;;;;;;;3.77;2.70;;;;;;;7.98;100.00;97173.94;4976663;28;20223;-85
2021/12/28 09:56:44;;;;;;;4.67;2.47;;;;;;;8.09;100.00;97180.06;4968245;28;20180;-85
2021/12/28 09:59:12;;;;;;;7.50;3.07;;;;;;;8.04;100.00;97180.47;4973706;28;20195;-85
2021/12/28 10:01:42;;;;;;;4.90;3.87;;;;;;;8.03;100.00;97176.19;4972783;28;20626;-86
2021/12/28 10:04:11;;;;;;;7.87;3.07;;;;;;;7.95;100.00;97176.00;4969971;28;20210;-85
2021/12/28 10:06:42;;;;;;;3.37;2.20;;;;;;;8.00;100.00;97177.25;4971343;28;20196;-86
2021/12/28 10:09:13;;;;;;;4.10;3.20;;;;;;;7.98;100.00;97166.00;4974195;28;20228;-85
2021/12/28 10:11:48;;;;;;;4.03;2.80;;;;;;;8.08;100.00;97173.97;4993793;28;20208;-84
2021/12/28 10:14:20;;;;;;;5.67;3.27;;;;;;;8.05;100.00;97166.34;4982457;28;20203;-85
2021/12/28 10:16:53;;;;;;;3.93;2.50;;;;;;;8.01;100.00;97164.94;4975682;28;20227;-85
2021/12/28 10:19:37;;;;;;;4.17;2.90;;;;;;;8.07;100.00;97168.84;4964698;28;20195;-85
2021/12/28 10:22:29;;;;;;;8.40;4.47;;;;;;;8.07;100.00;97174.09;4967695;28;20188;-86
2021/12/28 10:24:59;;;;;;;3.47;2.63;;;;;;;8.09;100.00;97177.44;4973582;28;20206;-85
2021/12/28 10:27:33;;;;;;;3.10;2.50;;;;;;;8.04;100.00;97164.66;4968431;28;20192;-85
2021/12/28 10:30:06;;;;;;;7.50;3.50;;;;;;;8.04;100.00;97165.50;4956971;28;20223;-85
2021/12/28 10:32:35;;;;;;;6.27;3.17;;;;;;;8.04;100.00;97164.66;4970997;28;20188;-85
2021/12/28 10:35:07;;;;;;;5.50;3.00;;;;;;;8.02;100.00;97164.81;4978679;28;20270;-85
2021/12/28 10:37:39;;;;;;;4.30;3.23;;;;;;;8.02;100.00;97164.81;5010901;28;20197;-85
2021/12/28 10:40:11;;;;;;;5.30;3.17;;;;;;;8.01;100.00;97154.41;5016393;28;20198;-84
2021/12/28 10:42:47;;;;;;;6.20;3.77;;;;;;;7.99;100.00;97151.03;5016325;28;20219;-85
2021/12/28 10:45:19;;;;;;;8.03;4.40;;;;;;;8.09;100.00;97148.44;5014447;28;20198;-85
2021/12/28 10:47:57;;;;;;;4.17;3.37;;;;;;;8.05;100.00;97150.53;5006399;28;20198;-85
2021/12/28 10:50:34;;;;;;;4.97;3.63;;;;;;;8.11;100.00;97165.00;5012574;28;20218;-85
2021/12/28 10:53:11;;;;;;;7.50;5.33;;;;;;;8.12;100.00;97164.84;5014839;28;20198;-85
2021/12/28 10:55:42;;;;;;;7.53;5.10;;;;;;;8.15;100.00;97161.94;5015692;28;20196;-85
2021/12/28 10:58:25;;;;;;;11.57;5.80;;;;;;;8.20;100.00;97157.13;5012711;28;20367;-85
2021/12/28 11:00:54;;;;;;;8.33;6.10;;;;;;;8.17;100.00;97145.97;5007022;28;20187;-85
2021/12/28 11:03:34;;;;;;;7.33;5.77;;;;;;;8.19;100.00;97144.88;5015972;28;20198;-85
2021/12/28 11:06:10;;;;;;;13.97;10.47;;;;;;;8.16;100.00;97136.41;5012923;28;20329;-84
2021/12/28 11:08:39;;;;;;;26.70;19.23;;;;;;;8.03;100.00;97137.47;5013635;28;20197;-85
2021/12/28 11:11:09;;;;;;;12.17;10.87;;;;;;;8.27;100.00;97131.03;4955313;29;20299;-85
2021/12/28 11:13:39;;;;;;;14.47;7.40;;;;;;;8.24;100.00;97126.88;4949212;29;20196;-85
2021/12/28 11:16:10;;;;;;;9.50;7.77;;;;;;;8.36;100.00;97124.16;4947899;29;20192;-85
2021/12/28 11:18:40;;;;;;;17.97;9.87;;;;;;;8.35;100.00;97119.84;4990641;28;20234;-85
2021/12/28 11:21:16;;;;;;;11.27;9.43;;;;;;;8.46;100.00;97115.28;4991251;28;20242;-86
2021/12/28 11:23:49;;;;;;;23.13;9.70;;;;;;;8.36;100.00;97114.44;4991036;28;20654;-85
2021/12/28 11:26:24;;;;;;;14.07;9.17;;;;;;;8.32;100.00;97110.38;4986535;28;20241;-85
2021/12/28 11:28:58;;;;;;;21.50;10.00;;;;;;;8.33;100.00;97104.97;4996206;28;20198;-85
2021/12/28 11:31:29;;;;;;;25.13;8.97;;;;;;;8.35;100.00;97088.19;5004660;28;20229;-85
2021/12/28 11:34:08;;;;;;;30.53;11.57;;;;;;;8.29;100.00;97085.09;5014766;28;20257;-85
2021/12/28 11:36:39;;;;;;;22.40;10.47;;;;;;;8.32;100.00;97098.03;5005121;28;20199;-85
2021/12/28 11:39:14;;;;;;;39.00;11.47;;;;;;;8.44;100.00;97093.50;5014763;28;20281;-85